Time;durP1;ratioP1;P1;durP2;ratioP2;P2;SDS_P1;SDS_P2;PMS_P1;PMS_P2;Temp;Humidity;BMP_temperature;BMP_pressure;BME280_temperature;BME280_humidity;BME280_pressure;Samples;Min_cycle;Max_cycle;Signal;HPM_P1;HPM_P2
2022/01/06 00:01:16;;;;;;;8.70;1.73;;;;;;;-143.35;100.00;58682.94;5014691;28;20101;-51
2022/01/06 00:03:45;;;;;;;8.13;1.25;;;;;;;-143.35;100.00;58682.94;5014578;28;20472;-49
2022/01/06 00:06:10;;;;;;;1.60;1.42;;;;;;;-143.35;100.00;58682.94;5014655;28;20033;-49
2022/01/06 00:08:38;;;;;;;0.98;0.73;;;;;;;-143.35;100.00;58682.94;5014575;28;20026;-49
2022/01/06 00:11:09;;;;;;;17.88;2.47;;;;;;;-143.35;100.00;58682.94;5014433;28;20030;-49
2022/01/06 00:24:14;;;;;;;2.90;0.93;;;;;;;-143.35;100.00;58682.94;5014673;28;20121;-50
2022/01/06 00:26:39;;;;;;;4.30;1.02;;;;;;;-143.35;100.00;58682.94;5013964;28;20061;-50
2022/01/06 00:29:05;;;;;;;9.65;1.67;;;;;;;-143.35;100.00;58682.94;5014432;28;20058;-51
2022/01/06 00:31:34;;;;;;;2.70;0.60;;;;;;;-143.35;100.00;58682.94;5014237;28;20128;-49
2022/01/06 00:34:00;;;;;;;2.42;0.77;;;;;;;-143.35;100.00;58682.94;5014379;28;20030;-49
2022/01/06 00:36:26;;;;;;;1.88;1.35;;;;;;;-143.35;100.00;58682.94;5014238;28;20044;-48
2022/01/06 00:38:51;;;;;;;15.68;2.50;;;;;;;-143.35;100.00;58682.94;5014207;28;20022;-49
2022/01/06 00:41:16;;;;;;;3.47;0.93;;;;;;;-143.35;100.00;58682.94;5014222;28;20113;-50
2022/01/06 00:43:42;;;;;;;0.73;0.65;;;;;;;-143.35;100.00;58682.94;5014184;28;20022;-49
2022/01/06 00:46:07;;;;;;;8.98;1.80;;;;;;;-143.35;100.00;58682.94;5014046;28;20034;-48
2022/01/06 00:48:33;;;;;;;12.73;1.80;;;;;;;-143.35;100.00;58682.94;5014025;28;20045;-49
2022/01/06 00:50:58;;;;;;;8.45;1.48;;;;;;;-143.35;100.00;58682.94;5014031;28;20037;-48
2022/01/06 00:53:23;;;;;;;2.72;1.20;;;;;;;-143.35;100.00;58682.94;5014186;28;20033;-49
2022/01/06 00:55:49;;;;;;;1.95;0.98;;;;;;;-143.35;100.00;58682.94;5014012;28;20037;-50
2022/01/06 00:58:15;;;;;;;3.05;1.33;;;;;;;-143.35;100.00;58682.94;5014109;28;20384;-48
2022/01/06 01:00:41;;;;;;;9.82;3.38;;;;;;;-143.35;100.00;58682.94;5014108;28;20026;-48
2022/01/06 01:03:11;;;;;;;3.20;1.25;;;;;;;-143.35;100.00;58682.94;5013910;28;20543;-51
2022/01/06 01:05:40;;;;;;;9.88;2.85;;;;;;;-143.35;100.00;58682.94;5013893;28;20040;-48
2022/01/06 01:08:06;;;;;;;10.07;1.20;;;;;;;-143.35;100.00;58682.94;5013913;28;20025;-48
2022/01/06 01:10:34;;;;;;;15.05;0.73;;;;;;;-143.35;100.00;58682.94;5013821;28;20053;-48
2022/01/06 01:13:00;;;;;;;11.40;1.40;;;;;;;-143.35;100.00;58682.94;5013902;28;20026;-49
2022/01/06 01:15:27;;;;;;;16.02;1.73;;;;;;;-143.35;100.00;58682.94;5013833;28;20083;-48
2022/01/06 01:17:54;;;;;;;9.38;1.77;;;;;;;-143.35;100.00;58682.94;5013854;28;20422;-48
2022/01/06 01:20:20;;;;;;;1.77;1.02;;;;;;;-143.35;100.00;58682.94;5013907;28;20029;-48
2022/01/06 01:22:46;;;;;;;5.80;1.60;;;;;;;-143.35;100.00;58682.94;5013748;28;20101;-48
2022/01/06 01:25:13;;;;;;;8.95;1.42;;;;;;;-143.35;100.00;58682.94;5013821;28;20030;-50
2022/01/06 01:27:42;;;;;;;7.80;1.50;;;;;;;-143.35;100.00;58682.94;5013715;28;20048;-48
2022/01/06 01:30:11;;;;;;;6.75;1.60;;;;;;;-143.35;100.00;58682.94;5013608;28;20045;-51
2022/01/06 01:32:39;;;;;;;6.65;1.35;;;;;;;-143.35;100.00;58682.94;5013692;28;20029;-48
2022/01/06 01:35:08;;;;;;;6.47;1.48;;;;;;;-143.35;100.00;58682.94;5013790;28;20045;-48
2022/01/06 01:37:34;;;;;;;4.10;1.40;;;;;;;-143.35;100.00;58682.94;5014884;28;20022;-48
2022/01/06 01:40:00;;;;;;;11.02;1.48;;;;;;;-143.35;100.00;58682.94;5017331;28;20419;-48
2022/01/06 01:42:26;;;;;;;15.45;3.05;;;;;;;-143.35;100.00;58682.94;5017257;28;20515;-48
2022/01/06 01:44:52;;;;;;;9.23;1.75;;;;;;;-143.35;100.00;58682.94;5017141;28;20036;-49
2022/01/06 01:47:30;;;;;;;8.25;1.85;;;;;;;-143.35;100.00;58682.94;5016723;28;20065;-50
2022/01/06 01:50:10;;;;;;;2.15;0.75;;;;;;;-143.35;100.00;58682.94;5017078;28;20488;-51
2022/01/06 01:52:36;;;;;;;;;;;;;;;-143.35;100.00;58682.94;5017583;28;20137;-49
2022/01/06 01:55:03;;;;;;;9.05;1.52;;;;;;;-143.35;100.00;58682.94;5016937;28;19913;-48
2022/01/06 01:57:28;;;;;;;13.52;1.80;;;;;;;-143.35;100.00;58682.94;5016978;28;20023;-51
2022/01/06 01:59:53;;;;;;;3.97;1.05;;;;;;;-143.35;100.00;58682.94;5016965;28;20033;-48
2022/01/06 02:02:19;;;;;;;12.52;2.13;;;;;;;-143.35;100.00;58682.94;5016878;28;20022;-48
2022/01/06 02:04:44;;;;;;;5.53;1.85;;;;;;;-143.35;100.00;58682.94;5017043;28;20104;-48
2022/01/06 02:07:09;;;;;;;6.95;1.50;;;;;;;-143.35;100.00;58682.94;5015671;28;20492;-48
2022/01/06 02:09:35;;;;;;;9.15;1.20;;;;;;;-143.35;100.00;58682.94;5016941;28;20112;-48
2022/01/06 02:12:01;;;;;;;4.93;0.93;;;;;;;-143.35;100.00;58682.94;5016756;28;20429;-47
2022/01/06 02:14:26;;;;;;;11.30;1.48;;;;;;;-143.35;100.00;58682.94;5016584;28;20030;-48
2022/01/06 02:16:54;;;;;;;6.63;1.48;;;;;;;-143.35;100.00;58682.94;5015438;28;20026;-48
2022/01/06 02:19:19;;;;;;;7.85;1.27;;;;;;;-143.35;100.00;58682.94;5016535;28;20025;-47
2022/01/06 02:21:45;;;;;;;8.18;2.65;;;;;;;-143.35;100.00;58682.94;5016523;28;20022;-48
2022/01/06 02:24:10;;;;;;;4.15;1.42;;;;;;;-143.35;100.00;58682.94;5016499;28;20024;-48
2022/01/06 02:26:35;;;;;;;7.43;1.58;;;;;;;-143.35;100.00;58682.94;5015312;28;20501;-48
2022/01/06 02:29:01;;;;;;;9.95;1.80;;;;;;;-143.35;100.00;58682.94;5016454;28;20449;-48
2022/01/06 02:31:27;;;;;;;18.42;2.25;;;;;;;-143.35;100.00;58682.94;5016233;28;20033;-48
2022/01/06 02:33:53;;;;;;;14.73;1.55;;;;;;;-143.35;100.00;58682.94;5015137;28;20396;-48
2022/01/06 02:36:19;;;;;;;14.38;1.75;;;;;;;-143.35;100.00;58682.94;5016338;28;20034;-47
2022/01/06 02:38:45;;;;;;;14.48;1.67;;;;;;;-143.35;100.00;58682.94;5016157;28;20034;-48
2022/01/06 02:41:10;;;;;;;6.28;1.30;;;;;;;-143.35;100.00;58682.94;5016215;28;20096;-50
2022/01/06 02:43:35;;;;;;;12.98;1.38;;;;;;;-143.35;100.00;58682.94;5016066;28;20465;-48
2022/01/06 02:46:01;;;;;;;7.25;1.50;;;;;;;-143.35;100.00;58682.94;5016147;28;20084;-50
2022/01/06 02:48:26;;;;;;;10.77;1.77;;;;;;;-143.35;100.00;58682.94;5015431;28;20088;-47
2022/01/06 02:50:52;;;;;;;17.00;1.88;;;;;;;-143.35;100.00;58682.94;5015934;28;20109;-47
2022/01/06 02:53:19;;;;;;;10.27;2.60;;;;;;;-143.35;100.00;58682.94;5015934;28;20026;-47
2022/01/06 02:55:50;;;;;;;3.65;0.73;;;;;;;-143.35;100.00;58682.94;5015969;28;20097;-49
2022/01/06 02:58:17;;;;;;;7.18;1.52;;;;;;;-143.35;100.00;58682.94;5015882;28;20033;-50
2022/01/06 03:00:44;;;;;;;3.22;1.50;;;;;;;-143.35;100.00;58682.94;5015792;28;20026;-48
2022/01/06 03:03:09;;;;;;;6.13;1.77;;;;;;;-143.35;100.00;58682.94;5015680;28;20369;-48
2022/01/06 03:05:34;;;;;;;8.40;2.20;;;;;;;-143.35;100.00;58682.94;5015728;28;20093;-48
2022/01/06 03:08:00;;;;;;;11.52;1.65;;;;;;;-143.35;100.00;58682.94;5015664;28;20128;-49
2022/01/06 03:10:27;;;;;;;9.60;1.70;;;;;;;-143.35;100.00;58682.94;5015449;28;20061;-48
2022/01/06 03:12:52;;;;;;;5.63;1.15;;;;;;;-143.35;100.00;58682.94;5015685;28;20033;-49
2022/01/06 03:15:20;;;;;;;6.70;1.48;;;;;;;-143.35;100.00;58682.94;5015554;28;20369;-47
2022/01/06 03:17:48;;;;;;;7.47;1.60;;;;;;;-143.35;100.00;58682.94;5015525;28;20021;-49
2022/01/06 03:20:16;;;;;;;10.85;2.28;;;;;;;-143.35;100.00;58682.94;5015374;28;20026;-50
2022/01/06 03:22:42;;;;;;;9.43;2.05;;;;;;;-143.35;100.00;58682.94;5015421;28;20037;-48
2022/01/06 03:25:08;;;;;;;2.55;1.13;;;;;;;-143.35;100.00;58682.94;5015263;28;20034;-48
2022/01/06 03:27:34;;;;;;;2.78;1.13;;;;;;;-143.35;100.00;58682.94;5015265;28;20444;-47
2022/01/06 03:30:00;;;;;;;3.40;1.08;;;;;;;-143.35;100.00;58682.94;5015176;28;20061;-48
2022/01/06 03:32:26;;;;;;;4.88;1.50;;;;;;;-143.35;100.00;58682.94;5015086;28;20057;-48
2022/01/06 03:34:51;;;;;;;1.90;0.70;;;;;;;-143.35;100.00;58682.94;5015142;28;20041;-48
2022/01/06 03:37:16;;;;;;;3.45;1.30;;;;;;;-143.35;100.00;58682.94;5015064;28;20042;-47
2022/01/06 03:39:43;;;;;;;1.98;1.10;;;;;;;-143.35;100.00;58682.94;5015209;28;20025;-47
2022/01/06 03:42:09;;;;;;;2.17;1.60;;;;;;;-143.35;100.00;58682.94;5015031;28;20022;-49
2022/01/06 03:44:35;;;;;;;6.75;1.25;;;;;;;-143.35;100.00;58682.94;5014999;28;20030;-48
2022/01/06 03:47:00;;;;;;;6.22;2.15;;;;;;;-143.35;100.00;58682.94;5018352;23;20051;-47
2022/01/06 03:49:26;;;;;;;6.78;2.22;;;;;;;-143.35;100.00;58682.94;4995305;28;20049;-48
2022/01/06 03:51:51;;;;;;;2.10;1.95;;;;;;;-143.35;100.00;58682.94;4995094;28;20121;-49
2022/01/06 03:54:16;;;;;;;3.90;0.98;;;;;;;-143.35;100.00;58682.94;4996282;28;20101;-48
2022/01/06 03:56:42;;;;;;;7.38;1.38;;;;;;;-143.35;100.00;58682.94;4995373;28;20093;-48
2022/01/06 03:59:07;;;;;;;1.48;1.13;;;;;;;-143.35;100.00;58682.94;4995225;28;20469;-47
2022/01/06 04:01:34;;;;;;;9.40;1.63;;;;;;;-143.35;100.00;58682.94;4994532;28;20169;-47
2022/01/06 04:03:59;;;;;;;2.22;1.20;;;;;;;-143.35;100.00;58682.94;4993964;28;20022;-48
2022/01/06 04:06:25;;;;;;;5.88;1.20;;;;;;;-143.35;100.00;58682.94;4995076;28;20033;-47
2022/01/06 04:08:50;;;;;;;6.07;1.45;;;;;;;-143.35;100.00;58682.94;4993854;28;20088;-48
2022/01/06 04:11:16;;;;;;;3.08;1.63;;;;;;;-143.35;100.00;58682.94;4994877;28;20492;-47
2022/01/06 04:13:41;;;;;;;8.23;1.55;;;;;;;-143.35;100.00;58682.94;4994970;28;20081;-47
2022/01/06 04:16:08;;;;;;;1.13;1.02;;;;;;;-143.35;100.00;58682.94;4994859;28;20563;-47
2022/01/06 04:18:33;;;;;;;3.42;1.80;;;;;;;-143.35;100.00;58682.94;4994861;28;20030;-48
2022/01/06 04:20:58;;;;;;;1.13;1.13;;;;;;;-143.35;100.00;58682.94;4994786;28;20389;-48
2022/01/06 04:23:24;;;;;;;1.83;1.00;;;;;;;-143.35;100.00;58682.94;4994728;28;20045;-47
2022/01/06 04:25:49;;;;;;;4.25;1.27;;;;;;;-143.35;100.00;58682.94;4994726;28;20034;-47
2022/01/06 04:28:14;;;;;;;0.63;0.63;;;;;;;-143.35;100.00;58682.94;4993652;28;20062;-49
2022/01/06 04:30:40;;;;;;;0.93;0.93;;;;;;;-143.35;100.00;58682.94;4994687;28;20026;-47
2022/01/06 04:33:05;;;;;;;2.35;0.98;;;;;;;-143.35;100.00;58682.94;4994694;28;20504;-48
2022/01/06 04:35:31;;;;;;;3.72;1.35;;;;;;;-143.35;100.00;58682.94;4994773;28;20081;-48
2022/01/06 04:37:56;;;;;;;1.88;1.15;;;;;;;-143.35;100.00;58682.94;4994529;28;20022;-47
2022/01/06 04:40:21;;;;;;;4.60;1.42;;;;;;;-143.35;100.00;58682.94;4994660;28;20018;-47
2022/01/06 04:42:47;;;;;;;6.97;2.25;;;;;;;-143.35;100.00;58682.94;4994488;28;20030;-47
2022/01/06 04:45:12;;;;;;;2.55;1.27;;;;;;;-143.35;100.00;58682.94;4994610;28;20023;-48
2022/01/06 04:47:37;;;;;;;4.63;2.08;;;;;;;-143.35;100.00;58682.94;4994345;28;20038;-48
2022/01/06 04:50:04;;;;;;;1.85;0.88;;;;;;;-143.35;100.00;58682.94;4994487;28;20382;-48
2022/01/06 04:52:29;;;;;;;0.52;0.52;;;;;;;-143.35;100.00;58682.94;4993291;28;20397;-49
2022/01/06 04:54:54;;;;;;;10.82;1.75;;;;;;;-143.35;100.00;58682.94;4994592;28;20022;-47
2022/01/06 04:57:20;;;;;;;9.23;1.88;;;;;;;-143.35;100.00;58682.94;4994571;28;20437;-48
2022/01/06 04:59:45;;;;;;;9.48;2.25;;;;;;;-143.35;100.00;58682.94;4994478;28;20030;-47
2022/01/06 05:02:10;;;;;;;7.47;1.08;;;;;;;-143.35;100.00;58682.94;4994354;28;20049;-48
2022/01/06 05:04:36;;;;;;;5.53;1.30;;;;;;;-143.35;100.00;58682.94;4994382;28;20026;-50
2022/01/06 05:07:01;;;;;;;4.80;1.63;;;;;;;-143.35;100.00;58682.94;4994389;28;20030;-48
2022/01/06 05:09:27;;;;;;;5.57;1.33;;;;;;;-143.35;100.00;58682.94;4994403;28;20030;-47
2022/01/06 05:11:52;;;;;;;4.32;0.82;;;;;;;-143.35;100.00;58682.94;4995980;28;20030;-47
2022/01/06 05:14:18;;;;;;;2.60;1.00;;;;;;;-143.35;100.00;58682.94;4998275;28;20026;-48
2022/01/06 05:16:43;;;;;;;5.93;1.48;;;;;;;-143.35;100.00;58682.94;4998181;28;20080;-48
2022/01/06 05:19:08;;;;;;;11.45;2.22;;;;;;;-143.35;100.00;58682.94;4998056;28;20038;-49
2022/01/06 05:21:34;;;;;;;4.88;1.67;;;;;;;-143.35;100.00;58682.94;4998113;28;20030;-47
2022/01/06 05:24:00;;;;;;;10.80;1.70;;;;;;;-143.35;100.00;58682.94;4998197;28;20038;-47
2022/01/06 05:26:26;;;;;;;13.57;1.75;;;;;;;-143.35;100.00;58682.94;4997871;28;20101;-48
2022/01/06 05:28:52;;;;;;;10.10;1.70;;;;;;;-143.35;100.00;58682.94;4997941;28;20028;-50
2022/01/06 05:31:17;;;;;;;19.08;1.73;;;;;;;-143.35;100.00;58682.94;4997687;28;20388;-48
2022/01/06 05:33:43;;;;;;;8.48;1.80;;;;;;;-143.35;100.00;58682.94;4997903;28;20026;-49
2022/01/06 05:36:08;;;;;;;6.38;1.45;;;;;;;-143.35;100.00;58682.94;4997752;28;20060;-50
2022/01/06 05:38:34;;;;;;;18.35;1.52;;;;;;;-143.35;100.00;58682.94;4997707;28;20037;-50
2022/01/06 05:40:59;;;;;;;2.78;1.50;;;;;;;-143.35;100.00;58682.94;4997650;28;20026;-48
2022/01/06 05:43:25;;;;;;;3.47;1.20;;;;;;;-143.35;100.00;58682.94;4997621;28;20026;-47
2022/01/06 05:45:54;;;;;;;8.60;2.13;;;;;;;-143.35;100.00;58682.94;4997660;28;20050;-48
2022/01/06 05:48:19;;;;;;;3.80;0.90;;;;;;;-143.35;100.00;58682.94;5001227;28;20054;-50
2022/01/06 05:50:48;;;;;;;5.05;2.05;;;;;;;-143.35;100.00;58682.94;4997359;28;20497;-47
2022/01/06 05:53:16;;;;;;;11.25;2.20;;;;;;;-143.35;100.00;58682.94;4996148;28;20469;-47
2022/01/06 05:55:42;;;;;;;5.15;1.65;;;;;;;-143.35;100.00;58682.94;4997419;28;20105;-48
2022/01/06 05:58:07;;;;;;;8.35;1.70;;;;;;;-143.35;100.00;58682.94;4997344;28;20161;-49
2022/01/06 06:00:32;;;;;;;9.48;1.90;;;;;;;-143.35;100.00;58682.94;4997366;28;20030;-48
2022/01/06 06:02:58;;;;;;;10.07;2.50;;;;;;;-143.35;100.00;58682.94;4997255;28;20029;-49
2022/01/06 06:05:24;;;;;;;8.00;3.13;;;;;;;-143.35;100.00;58682.94;4997198;28;20030;-48
2022/01/06 06:07:49;;;;;;;14.77;7.95;;;;;;;-143.35;100.00;58682.94;4995896;28;20440;-51
2022/01/06 06:10:15;;;;;;;14.13;6.32;;;;;;;-143.35;100.00;58682.94;4996949;28;20030;-50
2022/01/06 06:12:40;;;;;;;12.40;4.28;;;;;;;-143.35;100.00;58682.94;4997105;28;20026;-51
2022/01/06 06:15:06;;;;;;;20.10;4.30;;;;;;;-143.35;100.00;58682.94;4997206;28;20056;-48
2022/01/06 06:17:31;;;;;;;11.65;4.32;;;;;;;-143.35;100.00;58682.94;4997064;28;20023;-48
2022/01/06 06:19:57;;;;;;;8.48;3.33;;;;;;;-143.35;100.00;58682.94;4996917;28;20384;-48
2022/01/06 06:22:22;;;;;;;10.40;3.53;;;;;;;-143.35;100.00;58682.94;4996807;28;20066;-48
2022/01/06 06:24:47;;;;;;;9.40;3.00;;;;;;;-143.35;100.00;58682.94;4996298;28;20042;-48
2022/01/06 06:27:13;;;;;;;4.78;2.67;;;;;;;-143.35;100.00;58682.94;4997302;28;20053;-48
2022/01/06 06:29:38;;;;;;;10.90;3.40;;;;;;;-143.35;100.00;58682.94;4996926;28;20021;-48
2022/01/06 06:32:04;;;;;;;3.75;2.35;;;;;;;-143.35;100.00;58682.94;4996776;28;20489;-48
2022/01/06 06:34:29;;;;;;;7.15;2.85;;;;;;;-143.35;100.00;58682.94;4996660;28;20028;-48
2022/01/06 06:36:55;;;;;;;11.50;2.40;;;;;;;-143.35;100.00;58682.94;4995428;28;20023;-48
2022/01/06 06:39:20;;;;;;;9.82;2.53;;;;;;;-143.35;100.00;58682.94;4996582;28;20347;-48
2022/01/06 06:41:46;;;;;;;20.25;4.65;;;;;;;-143.35;100.00;58682.94;4996544;28;20026;-48
2022/01/06 06:44:11;;;;;;;15.15;3.22;;;;;;;-143.35;100.00;58682.94;4996461;28;20041;-47
2022/01/06 06:46:37;;;;;;;10.43;2.22;;;;;;;-143.35;100.00;58682.94;4996492;28;20437;-48
2022/01/06 06:49:02;;;;;;;10.88;2.42;;;;;;;-143.35;100.00;58682.94;4995877;28;20054;-48
2022/01/06 06:51:27;;;;;;;13.65;2.45;;;;;;;-143.35;100.00;58682.94;4994967;28;20034;-48
2022/01/06 06:53:53;;;;;;;10.48;2.35;;;;;;;-143.35;100.00;58682.94;4996347;28;20026;-51
2022/01/06 06:56:18;;;;;;;11.13;2.83;;;;;;;-143.35;100.00;58682.94;4996435;28;20036;-48
2022/01/06 06:58:43;;;;;;;17.50;2.40;;;;;;;-143.35;100.00;58682.94;4996273;28;20030;-48
2022/01/06 07:01:09;;;;;;;8.75;1.75;;;;;;;-143.35;100.00;58682.94;4996178;28;20022;-49
2022/01/06 07:03:35;;;;;;;15.82;3.17;;;;;;;-143.35;100.00;58682.94;4996236;28;20022;-51
2022/01/06 07:06:00;;;;;;;12.77;3.30;;;;;;;-143.35;100.00;58682.94;4996083;28;20492;-50
2022/01/06 07:08:25;;;;;;;15.23;1.92;;;;;;;-143.35;100.00;58682.94;4996080;28;20735;-50
2022/01/06 07:10:51;;;;;;;8.77;2.13;;;;;;;-143.35;100.00;58682.94;4996016;28;20054;-49
2022/01/06 07:13:18;;;;;;;5.28;2.45;;;;;;;-143.35;100.00;58682.94;4996006;28;20153;-49
2022/01/06 07:15:44;;;;;;;13.23;1.85;;;;;;;-143.35;100.00;58682.94;4995971;28;20030;-49
2022/01/06 07:18:10;;;;;;;6.50;3.20;;;;;;;-143.35;100.00;58682.94;4995809;28;20397;-51
2022/01/06 07:20:36;;;;;;;6.35;2.38;;;;;;;-143.35;100.00;58682.94;4995753;28;20165;-48
2022/01/06 07:23:01;;;;;;;16.48;2.25;;;;;;;-143.35;100.00;58682.94;4995782;28;20057;-50
2022/01/06 07:25:27;;;;;;;4.00;2.10;;;;;;;-143.35;100.00;58682.94;4995763;28;20030;-48
2022/01/06 07:27:52;;;;;;;8.27;2.10;;;;;;;-143.35;100.00;58682.94;4995690;28;20034;-48
2022/01/06 07:30:18;;;;;;;11.20;2.38;;;;;;;-143.35;100.00;58682.94;4994282;28;20477;-48
2022/01/06 07:32:48;;;;;;;17.10;4.22;;;;;;;-143.35;100.00;58682.94;4995569;28;20030;-48
2022/01/06 07:35:15;;;;;;;8.20;2.55;;;;;;;-143.35;100.00;58682.94;4994728;28;20022;-51
2022/01/06 07:37:40;;;;;;;4.25;2.40;;;;;;;-143.35;100.00;58682.94;4995637;28;20030;-49
2022/01/06 07:40:07;;;;;;;17.58;3.40;;;;;;;-143.35;100.00;58682.94;4995401;28;20033;-51
2022/01/06 07:42:33;;;;;;;12.85;2.58;;;;;;;-143.35;100.00;58682.94;4995400;28;20106;-49
2022/01/06 07:45:02;;;;;;;17.13;3.40;;;;;;;-143.35;100.00;58682.94;4995457;28;20076;-50
2022/01/06 07:47:32;;;;;;;14.35;4.10;;;;;;;-143.35;100.00;58682.94;4995301;28;20022;-49
2022/01/06 07:49:58;;;;;;;11.65;3.42;;;;;;;-143.35;100.00;58682.94;4995235;28;20559;-49
2022/01/06 07:52:24;;;;;;;7.38;2.40;;;;;;;-143.35;100.00;58682.94;4995318;28;20022;-50
2022/01/06 07:54:49;;;;;;;9.73;2.65;;;;;;;-143.35;100.00;58682.94;4995240;28;20385;-50
2022/01/06 07:57:14;;;;;;;8.00;2.40;;;;;;;-143.35;100.00;58682.94;4995296;28;20381;-50
2022/01/06 07:59:41;;;;;;;15.07;3.15;;;;;;;-143.35;100.00;58682.94;4993940;28;20397;-51
2022/01/06 08:02:07;;;;;;;8.00;2.65;;;;;;;-143.35;100.00;58682.94;4993770;28;20033;-50
2022/01/06 08:04:36;;;;;;;9.38;2.05;;;;;;;-143.35;100.00;58682.94;4993806;28;20026;-48
2022/01/06 08:07:02;;;;;;;6.15;2.63;;;;;;;-143.35;100.00;58682.94;4995235;28;20022;-51
2022/01/06 08:09:27;;;;;;;10.90;2.75;;;;;;;-143.35;100.00;58682.94;4995084;28;20027;-51
2022/01/06 08:11:53;;;;;;;7.43;3.05;;;;;;;-143.35;100.00;58682.94;4995277;28;20077;-49
2022/01/06 08:14:18;;;;;;;9.98;2.20;;;;;;;-143.35;100.00;58682.94;4994885;28;20029;-48
2022/01/06 08:16:46;;;;;;;9.05;1.98;;;;;;;-143.35;100.00;58682.94;4995004;28;20069;-47
2022/01/06 08:19:12;;;;;;;10.57;2.45;;;;;;;-143.35;100.00;58682.94;4994767;28;20053;-48
2022/01/06 08:21:37;;;;;;;20.25;3.10;;;;;;;-143.35;100.00;58682.94;4994853;28;20053;-48
2022/01/06 08:24:03;;;;;;;17.40;3.00;;;;;;;-143.35;100.00;58682.94;4993471;28;20026;-48
2022/01/06 08:26:31;;;;;;;13.77;2.83;;;;;;;-143.35;100.00;58682.94;4994623;28;20034;-48
2022/01/06 08:28:57;;;;;;;14.57;2.60;;;;;;;-143.35;100.00;58682.94;4994604;28;20026;-48
2022/01/06 08:31:22;;;;;;;14.98;3.17;;;;;;;-143.35;100.00;58682.94;4994649;28;20045;-48
2022/01/06 08:33:48;;;;;;;11.45;1.85;;;;;;;-143.35;100.00;58682.94;4994595;28;20030;-48
2022/01/06 08:36:14;;;;;;;6.07;2.33;;;;;;;-143.35;100.00;58682.94;4994745;28;20077;-48
2022/01/06 08:38:39;;;;;;;7.20;2.33;;;;;;;-143.35;100.00;58682.94;4994595;28;20109;-49
2022/01/06 08:41:06;;;;;;;3.70;2.42;;;;;;;-143.35;100.00;58682.94;4994664;28;20091;-49
2022/01/06 08:43:31;;;;;;;8.45;3.05;;;;;;;-143.35;100.00;58682.94;4994648;28;20026;-50
2022/01/06 08:45:58;;;;;;;9.73;3.03;;;;;;;-143.35;100.00;58682.94;4994907;28;20037;-48
2022/01/06 08:48:25;;;;;;;7.93;1.60;;;;;;;-143.35;100.00;58682.94;4998530;28;20037;-49
2022/01/06 08:50:51;;;;;;;10.40;1.75;;;;;;;-143.35;100.00;58682.94;4998596;28;20041;-48
2022/01/06 08:53:16;;;;;;;14.63;2.22;;;;;;;-143.35;100.00;58682.94;4998515;28;20469;-48
2022/01/06 08:55:46;;;;;;;10.70;2.33;;;;;;;-143.35;100.00;58682.94;4998734;28;20034;-50
2022/01/06 08:58:11;;;;;;;10.85;2.33;;;;;;;-143.35;100.00;58682.94;4998449;28;20029;-49
2022/01/06 09:00:39;;;;;;;10.27;1.85;;;;;;;-143.35;100.00;58682.94;4998319;28;20379;-49
2022/01/06 09:03:06;;;;;;;8.68;2.10;;;;;;;-143.35;100.00;58682.94;4998437;28;20057;-49
2022/01/06 09:05:32;;;;;;;4.38;2.33;;;;;;;-143.35;100.00;58682.94;4998325;28;20022;-49
2022/01/06 09:07:57;;;;;;;11.60;2.05;;;;;;;-143.35;100.00;58682.94;4998298;28;20113;-50
2022/01/06 09:10:23;;;;;;;8.02;1.73;;;;;;;-143.35;100.00;58682.94;4998272;28;20433;-49
2022/01/06 09:12:48;;;;;;;4.80;1.10;;;;;;;-143.35;100.00;58682.94;4998356;28;20030;-51
2022/01/06 09:15:13;;;;;;;10.23;2.17;;;;;;;-143.35;100.00;58682.94;4998160;28;20029;-49
2022/01/06 09:17:39;;;;;;;5.57;1.55;;;;;;;-143.35;100.00;58682.94;4998131;28;20027;-48
2022/01/06 09:20:06;;;;;;;4.90;1.92;;;;;;;-143.35;100.00;58682.94;4998129;28;20094;-49
2022/01/06 09:22:32;;;;;;;7.43;1.08;;;;;;;-143.35;100.00;58682.94;4997847;28;20026;-50
2022/01/06 09:24:57;;;;;;;3.20;1.25;;;;;;;-143.35;100.00;58682.94;4997987;28;20101;-49
2022/01/06 09:27:23;;;;;;;3.67;1.13;;;;;;;-143.35;100.00;58682.94;4997948;28;20022;-50
2022/01/06 09:29:51;;;;;;;6.40;1.17;;;;;;;-143.35;100.00;58682.94;4997904;28;20105;-50
2022/01/06 09:32:19;;;;;;;7.03;1.00;;;;;;;-143.35;100.00;58682.94;4997767;28;20112;-49
2022/01/06 09:34:47;;;;;;;3.30;1.58;;;;;;;-143.35;100.00;58682.94;4997712;28;20034;-49
2022/01/06 09:37:13;;;;;;;7.68;2.17;;;;;;;-143.35;100.00;58682.94;4997735;28;20157;-51
2022/01/06 09:39:38;;;;;;;4.07;1.10;;;;;;;-143.35;100.00;58682.94;4997772;28;20025;-49
2022/01/06 09:42:04;;;;;;;8.18;1.80;;;;;;;-143.35;100.00;58682.94;4997773;28;20034;-49
2022/01/06 09:44:31;;;;;;;12.27;2.55;;;;;;;-143.35;100.00;58682.94;4997775;28;20604;-48
2022/01/06 09:46:57;;;;;;;8.68;1.80;;;;;;;-143.35;100.00;58682.94;4997531;28;20022;-51
2022/01/06 09:49:23;;;;;;;9.65;2.58;;;;;;;-143.35;100.00;58682.94;4997305;28;20057;-50
2022/01/06 09:51:48;;;;;;;4.18;1.65;;;;;;;-143.35;100.00;58682.94;4997266;28;20039;-51
2022/01/06 09:54:13;;;;;;;4.88;1.70;;;;;;;-143.35;100.00;58682.94;4997440;28;20049;-48
2022/01/06 09:56:39;;;;;;;7.40;2.05;;;;;;;-143.35;100.00;58682.94;4997559;28;20077;-49
2022/01/06 09:59:04;;;;;;;21.63;2.50;;;;;;;-143.35;100.00;58682.94;4996308;28;20462;-51
2022/01/06 10:01:30;;;;;;;7.13;1.90;;;;;;;-143.35;100.00;58682.94;4997326;28;20015;-49
2022/01/06 10:03:55;;;;;;;5.18;1.60;;;;;;;-143.35;100.00;58682.94;4996080;28;20054;-51
2022/01/06 10:06:23;;;;;;;2.72;1.20;;;;;;;-143.35;100.00;58682.94;4997307;28;20358;-49
2022/01/06 10:09:04;;;;;;;3.50;0.77;;;;;;;-143.35;100.00;58682.94;4997115;28;20492;-52
2022/01/06 10:11:32;;;;;;;0.75;0.75;;;;;;;-143.35;100.00;58682.94;4997103;28;20101;-48
2022/01/06 10:14:10;;;;;;;7.82;1.85;;;;;;;-143.35;100.00;58682.94;4997161;28;20038;-49
2022/01/06 10:16:40;;;;;;;2.60;1.35;;;;;;;-143.35;100.00;58682.94;4997176;28;20026;-49
2022/01/06 10:19:10;;;;;;;3.60;1.23;;;;;;;-143.35;100.00;58682.94;4997077;28;20513;-50
2022/01/06 10:21:40;;;;;;;17.20;3.45;;;;;;;-143.35;100.00;58682.94;4996910;28;20492;-48
2022/01/06 10:24:14;;;;;;;4.78;1.95;;;;;;;-143.35;100.00;58682.94;4997056;28;20034;-49
2022/01/06 10:26:57;;;;;;;9.98;1.88;;;;;;;-143.35;100.00;58682.94;4996956;28;20373;-51
2022/01/06 10:29:29;;;;;;;4.72;1.83;;;;;;;-143.35;100.00;58682.94;4996917;28;20030;-51
2022/01/06 10:32:33;;;;;;;8.45;1.92;;;;;;;-143.35;100.00;58682.94;4996830;28;20094;-49
2022/01/06 10:35:02;;;;;;;13.52;2.40;;;;;;;-143.35;100.00;58682.94;4993719;28;20042;-48
2022/01/06 10:37:48;;;;;;;11.98;2.47;;;;;;;-143.35;100.00;58682.94;4996741;28;20026;-48
2022/01/06 10:40:24;;;;;;;9.05;2.60;;;;;;;-143.35;100.00;58682.94;4997253;28;20053;-49
2022/01/06 10:42:57;;;;;;;10.27;2.30;;;;;;;-143.35;100.00;58682.94;4996091;28;20027;-48
2022/01/06 10:45:25;;;;;;;7.32;2.75;;;;;;;-143.35;100.00;58682.94;4996635;28;20022;-48
2022/01/06 10:47:56;;;;;;;17.52;2.72;;;;;;;-143.35;100.00;58682.94;4995665;28;20474;-49
2022/01/06 10:50:33;;;;;;;8.20;2.60;;;;;;;-143.35;100.00;58682.94;4996319;28;20056;-48
2022/01/06 10:53:00;;;;;;;8.27;2.33;;;;;;;-143.35;100.00;58682.94;4996399;28;20031;-49
2022/01/06 10:55:36;;;;;;;9.55;2.67;;;;;;;-143.35;100.00;58682.94;4996260;28;20436;-48
2022/01/06 10:58:06;;;;;;;9.77;2.10;;;;;;;-143.35;100.00;58682.94;4996413;28;20377;-48
2022/01/06 11:00:33;;;;;;;;;;;;;;;-143.35;100.00;58682.94;4996728;28;20385;-48
2022/01/06 11:03:06;;;;;;;7.80;2.03;;;;;;;-143.35;100.00;58682.94;4996232;28;19974;-48
2022/01/06 11:05:33;;;;;;;8.43;2.30;;;;;;;-143.35;100.00;58682.94;4996121;28;20053;-48
2022/01/06 11:08:00;;;;;;;6.90;2.17;;;;;;;-143.35;100.00;58682.94;4996165;28;20022;-48
2022/01/06 11:10:26;;;;;;;4.90;1.77;;;;;;;-143.35;100.00;58682.94;4995769;28;20469;-48
2022/01/06 11:12:51;;;;;;;7.55;1.48;;;;;;;-143.35;100.00;58682.94;4995967;28;20030;-48
2022/01/06 11:15:17;;;;;;;5.75;1.58;;;;;;;-143.35;100.00;58682.94;4995823;28;20041;-48